Mafeking, Canada
Current Conditions -  °F | °C
As of 5:00 PM on Tuesday 25 Nov 2014 (Local Time) from CYQD Reporting Station
Few Clouds Few Clouds  
Wind Chill: -23°   Ceiling: Unl
Heat Index: -8°   Visibility: 15mi
Dew Point: -15°   Wind: 8mph
Humidity: 71%   Direction: 320°NW
Pressure: 30.23"   Gusts: NA
Location:  52.68°N, 101.1°W
Report Text: CYQD 252300Z 32007KT 15SM FEW200 M22/M26 A3023 RMK CS1 CS TR SLP269
Loading
Personal Weather Stations






























Interactive Weather Map New forecast layout! Learn more

10-Day Weather Forecast

Advertisements
Track Severe Weather on mobile